Time;durP1;ratioP1;P1;durP2;ratioP2;P2;SDS_P1;SDS_P2;PMS_P1;PMS_P2;Temp;Humidity;BMP_temperature;BMP_pressure;BME280_temperature;BME280_humidity;BME280_pressure;Samples;Min_cycle;Max_cycle;Signal;HPM_P1;HPM_P2
2021/04/17 00:01:03;;;;;;;13.48;6.22;;;;;;;;;;5089758;28;20123;-84
2021/04/17 00:03:28;;;;;;;13.88;5.90;;;;;;;;;;5091496;28;20024;-83
2021/04/17 00:05:53;;;;;;;11.07;5.40;;;;;;;;;;5091573;28;20467;-84
2021/04/17 00:08:19;;;;;;;13.27;6.20;;;;;;;;;;5090639;28;20077;-83
2021/04/17 00:10:44;;;;;;;15.77;6.70;;;;;;;;;;5090490;28;20024;-86
2021/04/17 00:13:09;;;;;;;16.65;6.68;;;;;;;;;;5090777;28;20061;-85
2021/04/17 00:15:35;;;;;;;11.63;5.35;;;;;;;;;;5090225;28;20085;-86
2021/04/17 00:18:00;;;;;;;11.88;6.00;;;;;;;;;;5077228;28;20021;-86
2021/04/17 00:20:25;;;;;;;12.13;5.78;;;;;;;;;;5087002;28;20051;-86
2021/04/17 00:22:50;;;;;;;11.13;5.53;;;;;;;;;;5089437;28;20110;-86
2021/04/17 00:25:15;;;;;;;11.88;5.05;;;;;;;;;;5091546;28;20055;-86
2021/04/17 00:27:41;;;;;;;10.38;5.03;;;;;;;;;;5090512;28;20158;-86
2021/04/17 00:30:07;;;;;;;10.88;5.30;;;;;;;;;;5091062;28;20019;-84
2021/04/17 00:32:32;;;;;;;12.98;6.38;;;;;;;;;;5090185;28;20012;-86
2021/04/17 00:34:57;;;;;;;9.65;4.75;;;;;;;;;;5081942;28;20027;-86
2021/04/17 00:37:23;;;;;;;13.13;6.10;;;;;;;;;;5089414;28;20020;-86
2021/04/17 00:39:50;;;;;;;9.68;4.95;;;;;;;;;;5084752;28;20051;-86
2021/04/17 00:42:15;;;;;;;9.43;4.85;;;;;;;;;;5090127;28;20020;-86
2021/04/17 00:44:40;;;;;;;10.95;4.85;;;;;;;;;;5104736;28;20027;-85
2021/04/17 00:47:07;;;;;;;11.80;4.88;;;;;;;;;;5089192;28;20035;-86
2021/04/17 00:49:32;;;;;;;11.68;4.88;;;;;;;;;;5088660;28;20122;-85
2021/04/17 00:51:58;;;;;;;8.68;5.38;;;;;;;;;;5076632;28;20052;-87
2021/04/17 00:54:23;;;;;;;8.90;4.55;;;;;;;;;;5082971;28;20099;-86
2021/04/17 00:56:48;;;;;;;12.80;5.40;;;;;;;;;;5088652;28;20082;-86
2021/04/17 00:59:14;;;;;;;11.85;6.35;;;;;;;;;;5090813;28;20027;-84
2021/04/17 01:01:39;;;;;;;9.35;4.75;;;;;;;;;;5072946;28;20028;-83
2021/04/17 01:04:10;;;;;;;10.70;5.50;;;;;;;;;;5089025;28;20020;-84
2021/04/17 01:06:35;;;;;;;;;;;;;;;;;;5088682;28;20020;-84
2021/04/17 01:09:03;;;;;;;12.57;5.40;;;;;;;;;;5087631;28;19912;-83
2021/04/17 01:11:44;;;;;;;11.02;5.25;;;;;;;;;;5088482;28;20020;-84
2021/04/17 01:14:10;;;;;;;13.02;5.22;;;;;;;;;;5087808;28;20617;-84
2021/04/17 01:16:35;;;;;;;13.48;5.97;;;;;;;;;;5088789;28;20058;-83
2021/04/17 01:19:02;;;;;;;11.10;5.90;;;;;;;;;;5088161;28;20020;-84
2021/04/17 01:21:28;;;;;;;14.43;5.75;;;;;;;;;;5088400;28;20090;-84
2021/04/17 01:23:57;;;;;;;13.18;6.15;;;;;;;;;;5080276;28;20657;-84
2021/04/17 01:26:23;;;;;;;15.15;6.10;;;;;;;;;;5088510;28;20020;-86
2021/04/17 01:28:50;;;;;;;14.02;5.63;;;;;;;;;;5088584;28;20024;-85
2021/04/17 01:31:16;;;;;;;14.88;5.47;;;;;;;;;;5088697;28;20023;-86
2021/04/17 01:33:50;;;;;;;12.68;5.72;;;;;;;;;;5089020;28;20250;-86
2021/04/17 01:36:17;;;;;;;9.57;5.63;;;;;;;;;;5088043;28;20084;-86
2021/04/17 01:38:50;;;;;;;19.60;7.55;;;;;;;;;;5088861;28;20032;-84
2021/04/17 01:41:27;;;;;;;14.30;6.45;;;;;;;;;;5088764;28;20046;-85
2021/04/17 01:43:54;;;;;;;13.30;6.00;;;;;;;;;;5087892;28;20051;-82
2021/04/17 01:46:23;;;;;;;17.92;6.75;;;;;;;;;;5088173;28;20028;-83
2021/04/17 01:48:54;;;;;;;12.97;6.10;;;;;;;;;;5085097;28;20020;-83
2021/04/17 01:51:20;;;;;;;13.30;6.47;;;;;;;;;;5075769;28;20024;-85
2021/04/17 01:53:45;;;;;;;13.23;6.40;;;;;;;;;;5088750;28;20016;-84
2021/04/17 01:56:12;;;;;;;17.23;6.72;;;;;;;;;;5088124;28;20046;-85
2021/04/17 01:58:39;;;;;;;14.93;6.93;;;;;;;;;;5088088;28;20095;-84
2021/04/17 02:01:04;;;;;;;14.70;6.28;;;;;;;;;;5089888;28;20031;-85
2021/04/17 02:03:29;;;;;;;15.57;7.53;;;;;;;;;;5103888;28;20020;-85
2021/04/17 02:05:55;;;;;;;14.02;6.65;;;;;;;;;;5080153;28;20391;-85
2021/04/17 02:08:21;;;;;;;10.50;5.70;;;;;;;;;;5087734;28;20024;-85
2021/04/17 02:10:47;;;;;;;16.17;6.53;;;;;;;;;;5089359;28;20016;-85
2021/04/17 02:13:13;;;;;;;11.23;5.43;;;;;;;;;;5088787;28;20118;-86
2021/04/17 02:15:39;;;;;;;15.35;6.63;;;;;;;;;;5087403;28;20078;-85
2021/04/17 02:18:06;;;;;;;9.63;5.45;;;;;;;;;;5087146;28;20026;-85
2021/04/17 02:20:35;;;;;;;15.35;7.63;;;;;;;;;;5068910;28;20027;-84
2021/04/17 02:23:00;;;;;;;14.98;5.85;;;;;;;;;;5095661;28;20092;-83
2021/04/17 02:25:25;;;;;;;12.82;5.63;;;;;;;;;;5113010;28;20285;-84
2021/04/17 02:27:51;;;;;;;10.93;5.47;;;;;;;;;;5103004;28;20104;-84
2021/04/17 02:30:16;;;;;;;13.35;5.70;;;;;;;;;;5094040;28;20115;-86
2021/04/17 02:32:41;;;;;;;11.43;6.32;;;;;;;;;;5110154;28;20020;-85
2021/04/17 02:35:07;;;;;;;11.38;5.75;;;;;;;;;;5098838;28;20020;-84
2021/04/17 02:37:32;;;;;;;16.75;6.22;;;;;;;;;;5092248;28;20039;-85
2021/04/17 02:39:57;;;;;;;14.82;5.60;;;;;;;;;;5086674;28;20015;-84
2021/04/17 02:42:22;;;;;;;19.17;6.18;;;;;;;;;;5087260;28;20032;-85
2021/04/17 02:44:48;;;;;;;12.15;5.75;;;;;;;;;;5083255;28;20499;-85
2021/04/17 02:47:13;;;;;;;12.98;5.60;;;;;;;;;;5087924;28;20724;-84
2021/04/17 02:49:38;;;;;;;12.90;5.20;;;;;;;;;;5086988;28;20444;-84
2021/04/17 02:52:04;;;;;;;9.98;5.28;;;;;;;;;;5087480;28;20040;-85
2021/04/17 02:54:29;;;;;;;11.80;6.15;;;;;;;;;;5090427;28;20039;-85
2021/04/17 02:56:54;;;;;;;10.95;5.07;;;;;;;;;;5089756;28;20027;-86
2021/04/17 02:59:20;;;;;;;10.82;4.72;;;;;;;;;;5082814;28;20054;-84
2021/04/17 03:01:45;;;;;;;10.93;5.03;;;;;;;;;;5090810;28;20483;-85
2021/04/17 03:04:11;;;;;;;10.75;5.00;;;;;;;;;;5092293;28;20177;-85
2021/04/17 03:06:36;;;;;;;18.40;5.65;;;;;;;;;;5091727;28;20016;-86
2021/04/17 03:09:02;;;;;;;14.82;6.00;;;;;;;;;;5090435;28;20036;-84
2021/04/17 03:11:27;;;;;;;10.52;4.97;;;;;;;;;;5090239;28;20537;-85
2021/04/17 03:13:52;;;;;;;12.73;5.78;;;;;;;;;;5107923;28;20024;-84
2021/04/17 03:16:17;;;;;;;12.38;4.88;;;;;;;;;;5091026;28;20027;-85
2021/04/17 03:18:42;;;;;;;15.07;5.93;;;;;;;;;;5089811;28;20046;-84
2021/04/17 03:21:08;;;;;;;8.90;4.53;;;;;;;;;;5090790;28;20389;-86
2021/04/17 03:23:33;;;;;;;15.80;5.35;;;;;;;;;;5090096;28;20024;-85
2021/04/17 03:25:58;;;;;;;10.85;4.30;;;;;;;;;;5092221;28;20020;-85
2021/04/17 03:28:23;;;;;;;14.52;4.93;;;;;;;;;;5091539;28;20395;-85
2021/04/17 03:30:49;;;;;;;12.30;4.68;;;;;;;;;;5091996;28;20024;-85
2021/04/17 03:33:14;;;;;;;8.98;3.88;;;;;;;;;;5092013;28;20475;-84
2021/04/17 03:35:39;;;;;;;10.60;4.22;;;;;;;;;;5091242;28;20016;-83
2021/04/17 03:38:04;;;;;;;15.68;4.07;;;;;;;;;;5089446;28;20020;-84
2021/04/17 03:40:30;;;;;;;18.50;4.88;;;;;;;;;;5089837;28;20039;-86
2021/04/17 03:42:55;;;;;;;11.02;5.03;;;;;;;;;;5091128;28;20040;-85
2021/04/17 03:45:21;;;;;;;11.43;4.70;;;;;;;;;;5088111;28;20030;-84
2021/04/17 03:47:46;;;;;;;8.73;3.80;;;;;;;;;;5091522;28;20031;-83
2021/04/17 03:50:13;;;;;;;13.35;4.57;;;;;;;;;;5090822;28;20048;-85
2021/04/17 03:52:38;;;;;;;11.38;4.50;;;;;;;;;;5090053;28;20020;-85
2021/04/17 03:55:04;;;;;;;9.50;3.75;;;;;;;;;;5090325;28;20089;-85
2021/04/17 03:57:30;;;;;;;10.60;4.45;;;;;;;;;;5078802;28;20487;-85
2021/04/17 03:59:55;;;;;;;10.30;3.83;;;;;;;;;;5082212;28;20028;-84
2021/04/17 04:02:20;;;;;;;15.05;4.53;;;;;;;;;;5082537;28;20020;-85
2021/04/17 04:04:45;;;;;;;8.95;5.28;;;;;;;;;;5085063;28;20607;-84
2021/04/17 04:07:10;;;;;;;8.90;3.80;;;;;;;;;;5089201;28;20123;-85
2021/04/17 04:09:36;;;;;;;8.95;4.22;;;;;;;;;;5085313;28;20555;-84
2021/04/17 04:12:04;;;;;;;9.88;4.38;;;;;;;;;;5083816;28;20020;-84
2021/04/17 04:14:29;;;;;;;12.00;4.30;;;;;;;;;;5089277;28;20104;-84
2021/04/17 04:16:54;;;;;;;14.25;4.40;;;;;;;;;;5083854;28;20099;-85
2021/04/17 04:19:19;;;;;;;9.57;4.40;;;;;;;;;;5082566;28;20074;-85
2021/04/17 04:21:45;;;;;;;11.35;4.63;;;;;;;;;;5084243;28;20024;-85
2021/04/17 04:24:10;;;;;;;9.40;4.50;;;;;;;;;;5087205;28;20020;-84
2021/04/17 04:26:36;;;;;;;9.60;4.10;;;;;;;;;;5082342;28;20042;-85
2021/04/17 04:29:01;;;;;;;12.60;4.68;;;;;;;;;;5079438;28;20113;-84
2021/04/17 04:31:27;;;;;;;21.95;4.60;;;;;;;;;;5087827;28;20030;-85
2021/04/17 04:33:52;;;;;;;11.77;4.43;;;;;;;;;;5089179;28;20021;-84
2021/04/17 04:36:17;;;;;;;12.93;5.13;;;;;;;;;;5089212;28;20138;-83
2021/04/17 04:38:42;;;;;;;10.05;4.55;;;;;;;;;;5075466;28;20065;-84
2021/04/17 04:41:07;;;;;;;13.60;5.15;;;;;;;;;;5081502;28;20035;-84
2021/04/17 04:43:33;;;;;;;8.95;5.35;;;;;;;;;;5075790;28;20036;-85
2021/04/17 04:45:58;;;;;;;11.93;4.97;;;;;;;;;;5086249;28;20035;-86
2021/04/17 04:48:23;;;;;;;7.05;4.53;;;;;;;;;;5086038;28;20028;-84
2021/04/17 04:50:48;;;;;;;10.57;5.20;;;;;;;;;;5086948;28;20013;-85
2021/04/17 04:53:14;;;;;;;11.98;5.30;;;;;;;;;;5088434;28;20028;-85
2021/04/17 04:55:39;;;;;;;13.75;4.85;;;;;;;;;;5087424;28;20020;-85
2021/04/17 04:58:04;;;;;;;12.40;5.80;;;;;;;;;;5076181;28;20032;-84
2021/04/17 05:00:29;;;;;;;9.40;5.68;;;;;;;;;;5081548;28;20668;-84
2021/04/17 05:02:55;;;;;;;11.35;5.70;;;;;;;;;;5081089;28;20028;-84
2021/04/17 05:05:20;;;;;;;13.43;5.50;;;;;;;;;;5088415;28;20054;-85
2021/04/17 05:07:45;;;;;;;10.63;5.13;;;;;;;;;;5085432;28;20528;-84
2021/04/17 05:10:11;;;;;;;11.10;5.40;;;;;;;;;;5084548;28;20052;-84
2021/04/17 05:12:36;;;;;;;15.27;6.22;;;;;;;;;;5078589;28;20071;-85
2021/04/17 05:15:01;;;;;;;11.15;5.05;;;;;;;;;;5085821;28;20066;-84
2021/04/17 05:17:26;;;;;;;14.68;5.47;;;;;;;;;;5077928;28;20020;-85
2021/04/17 05:19:53;;;;;;;14.38;5.60;;;;;;;;;;5086419;28;20040;-84
2021/04/17 05:22:18;;;;;;;8.93;5.53;;;;;;;;;;5086926;28;20060;-83
2021/04/17 05:24:43;;;;;;;19.10;7.25;;;;;;;;;;5102404;28;20044;-85
2021/04/17 05:27:08;;;;;;;11.82;5.55;;;;;;;;;;5084406;28;20028;-84
2021/04/17 05:29:34;;;;;;;13.05;5.57;;;;;;;;;;5085039;28;20020;-85
2021/04/17 05:31:59;;;;;;;11.18;4.97;;;;;;;;;;5078566;28;20115;-84
2021/04/17 05:34:24;;;;;;;11.88;5.68;;;;;;;;;;5086107;28;20036;-84
2021/04/17 05:36:49;;;;;;;14.85;5.45;;;;;;;;;;5084494;28;20023;-84
2021/04/17 05:39:14;;;;;;;16.23;6.50;;;;;;;;;;5085151;28;20024;-84
2021/04/17 05:41:40;;;;;;;12.50;5.35;;;;;;;;;;5085153;28;20039;-85
2021/04/17 05:44:10;;;;;;;10.05;5.47;;;;;;;;;;5086107;28;20020;-84
2021/04/17 05:46:37;;;;;;;11.43;5.47;;;;;;;;;;5069265;28;20510;-85
2021/04/17 05:49:02;;;;;;;9.38;4.88;;;;;;;;;;5065288;28;20036;-85
2021/04/17 05:51:27;;;;;;;8.20;5.25;;;;;;;;;;5078534;28;20127;-84
2021/04/17 05:53:53;;;;;;;14.05;5.70;;;;;;;;;;5087885;28;20768;-84
2021/04/17 05:56:18;;;;;;;14.80;6.18;;;;;;;;;;5080571;28;20024;-84
2021/04/17 05:58:43;;;;;;;11.25;5.85;;;;;;;;;;5081924;28;20035;-84
2021/04/17 06:01:08;;;;;;;13.40;5.57;;;;;;;;;;5071369;28;20032;-85
2021/04/17 06:03:33;;;;;;;11.55;5.40;;;;;;;;;;5084165;28;20638;-85
2021/04/17 06:05:59;;;;;;;11.73;5.03;;;;;;;;;;5084530;28;20030;-85
2021/04/17 06:08:24;;;;;;;14.38;6.20;;;;;;;;;;5066100;28;20121;-85
2021/04/17 06:10:49;;;;;;;9.07;5.05;;;;;;;;;;5078258;28;20181;-85
2021/04/17 06:13:14;;;;;;;9.48;5.20;;;;;;;;;;5086795;28;20020;-86
2021/04/17 06:15:40;;;;;;;18.50;5.53;;;;;;;;;;5078762;28;20020;-85
2021/04/17 06:18:05;;;;;;;12.90;6.00;;;;;;;;;;5078332;28;20034;-85
2021/04/17 06:20:30;;;;;;;11.45;6.20;;;;;;;;;;5080250;28;20040;-85
2021/04/17 06:22:56;;;;;;;15.02;5.90;;;;;;;;;;5084691;28;20024;-85
2021/04/17 06:25:21;;;;;;;15.18;5.80;;;;;;;;;;5073644;28;20462;-86
2021/04/17 06:27:47;;;;;;;10.98;5.88;;;;;;;;;;5086033;28;20111;-84
2021/04/17 06:30:12;;;;;;;14.25;5.10;;;;;;;;;;5088808;28;20024;-86
2021/04/17 06:32:37;;;;;;;11.82;5.85;;;;;;;;;;5088709;28;20197;-85
2021/04/17 06:35:03;;;;;;;13.25;5.97;;;;;;;;;;5085383;28;20070;-85
2021/04/17 06:37:28;;;;;;;11.68;6.07;;;;;;;;;;5080864;28;20081;-85
2021/04/17 06:39:53;;;;;;;13.38;6.35;;;;;;;;;;5088449;28;20557;-86
2021/04/17 06:42:20;;;;;;;19.88;6.72;;;;;;;;;;5089521;28;20032;-86
2021/04/17 06:44:46;;;;;;;9.70;4.95;;;;;;;;;;5090620;28;20038;-86
2021/04/17 06:47:12;;;;;;;14.57;5.93;;;;;;;;;;5084487;28;20021;-85
2021/04/17 06:49:38;;;;;;;11.05;5.88;;;;;;;;;;5077879;28;20031;-85
2021/04/17 06:52:04;;;;;;;11.35;5.93;;;;;;;;;;5088008;28;20055;-84
2021/04/17 06:54:29;;;;;;;12.18;5.75;;;;;;;;;;5088118;28;20043;-85
2021/04/17 06:56:55;;;;;;;21.88;7.28;;;;;;;;;;5089265;28;20020;-86
2021/04/17 06:59:20;;;;;;;15.35;5.55;;;;;;;;;;5082543;28;20048;-86
2021/04/17 07:01:46;;;;;;;17.88;6.47;;;;;;;;;;5083604;28;20024;-86
2021/04/17 07:04:13;;;;;;;12.40;5.68;;;;;;;;;;5090147;28;20027;-84
2021/04/17 07:06:38;;;;;;;14.63;5.72;;;;;;;;;;5088766;28;20020;-87
2021/04/17 07:09:04;;;;;;;11.75;5.70;;;;;;;;;;5086328;28;20428;-85
2021/04/17 07:11:29;;;;;;;12.25;5.38;;;;;;;;;;5082457;28;20028;-87
2021/04/17 07:14:05;;;;;;;13.63;5.80;;;;;;;;;;5088201;28;20019;-88
2021/04/17 07:16:30;;;;;;;14.52;5.00;;;;;;;;;;5073446;28;20035;-88
2021/04/17 07:18:56;;;;;;;11.88;5.50;;;;;;;;;;5078062;28;20396;-87
2021/04/17 07:21:22;;;;;;;9.57;4.82;;;;;;;;;;5087833;28;20383;-88
2021/04/17 07:23:48;;;;;;;11.20;4.65;;;;;;;;;;5088684;28;20012;-88
2021/04/17 07:26:21;;;;;;;7.95;4.53;;;;;;;;;;5079755;28;20024;-88
2021/04/17 07:28:56;;;;;;;5.57;3.72;;;;;;;;;;5088691;28;20112;-84
2021/04/17 07:31:22;;;;;;;7.80;3.60;;;;;;;;;;5086154;28;20084;-88
2021/04/17 07:33:47;;;;;;;11.43;5.43;;;;;;;;;;5088734;28;20024;-88
2021/04/17 07:36:23;;;;;;;;;;;;;;;;;;;;;
2021/04/17 07:38:48;;;;;;;5.88;3.33;;;;;;;;;;5094273;28;20504;-88
2021/04/17 07:41:15;;;;;;;6.63;3.13;;;;;;;;;;5091142;28;20103;-89
2021/04/17 07:43:59;;;;;;;6.22;3.05;;;;;;;;;;5096907;28;20020;-88
2021/04/17 07:46:32;;;;;;;6.03;3.22;;;;;;;;;;5092963;28;20027;-90
2021/04/17 07:49:15;;;;;;;9.57;3.80;;;;;;;;;;5071345;28;20844;-88
2021/04/17 07:51:59;;;;;;;7.78;3.70;;;;;;;;;;5077861;28;20027;-86
2021/04/17 07:54:24;;;;;;;7.25;3.75;;;;;;;;;;5079645;28;20032;-86
2021/04/17 07:56:50;;;;;;;9.40;2.90;;;;;;;;;;5087784;28;20022;-85
2021/04/17 07:59:19;;;;;;;7.20;3.40;;;;;;;;;;5088976;28;20028;-87
2021/04/17 08:01:45;;;;;;;11.13;3.25;;;;;;;;;;5089576;28;20030;-86
2021/04/17 08:04:10;;;;;;;6.72;3.53;;;;;;;;;;5087520;28;20122;-87
2021/04/17 08:06:36;;;;;;;10.55;3.00;;;;;;;;;;5087956;28;20027;-87
2021/04/17 08:09:03;;;;;;;6.53;2.85;;;;;;;;;;5088428;28;20170;-88
2021/04/17 08:11:29;;;;;;;9.90;2.88;;;;;;;;;;5087436;28;20024;-87
2021/04/17 08:13:55;;;;;;;9.05;3.13;;;;;;;;;;5089550;28;20028;-88
2021/04/17 08:16:20;;;;;;;13.32;3.63;;;;;;;;;;5088426;28;20398;-88
2021/04/17 08:18:46;;;;;;;7.80;3.03;;;;;;;;;;5083617;28;20028;-88
2021/04/17 08:21:12;;;;;;;8.93;2.92;;;;;;;;;;5079231;28;20264;-87
2021/04/17 08:23:37;;;;;;;7.40;3.58;;;;;;;;;;5088898;28;20016;-88
2021/04/17 08:26:04;;;;;;;10.55;3.75;;;;;;;;;;5087726;28;20447;-87
2021/04/17 08:28:29;;;;;;;11.88;4.45;;;;;;;;;;5087877;28;20024;-88
2021/04/17 08:31:13;;;;;;;7.13;2.97;;;;;;;;;;5086696;28;20542;-87
2021/04/17 08:33:38;;;;;;;10.25;3.58;;;;;;;;;;5091411;28;20932;-85
2021/04/17 08:36:04;;;;;;;10.83;4.77;;;;;;;;;;5087242;28;20141;-87
2021/04/17 08:38:35;;;;;;;7.72;3.67;;;;;;;;;;5087362;28;20277;-86
2021/04/17 08:41:01;;;;;;;9.52;3.80;;;;;;;;;;5089916;28;20032;-88
2021/04/17 08:43:27;;;;;;;11.60;3.80;;;;;;;;;;5087845;28;20089;-87
2021/04/17 08:46:00;;;;;;;11.82;4.30;;;;;;;;;;5089740;28;20276;-87
2021/04/17 08:48:43;;;;;;;9.88;4.10;;;;;;;;;;5089176;28;20081;-86
2021/04/17 08:51:21;;;;;;;10.32;4.45;;;;;;;;;;5089377;28;20024;-86
2021/04/17 08:53:46;;;;;;;11.90;4.88;;;;;;;;;;5089460;28;20487;-85
2021/04/17 08:56:11;;;;;;;12.00;5.40;;;;;;;;;;5088437;28;20031;-87
2021/04/17 08:58:36;;;;;;;11.93;5.03;;;;;;;;;;5083302;28;21869;-85
2021/04/17 09:01:06;;;;;;;10.10;4.68;;;;;;;;;;5090934;28;20263;-86
2021/04/17 09:03:44;;;;;;;13.93;5.15;;;;;;;;;;5085056;28;20005;-85
2021/04/17 09:06:25;;;;;;;10.23;4.15;;;;;;;;;;5094819;28;20027;-85
2021/04/17 09:09:09;;;;;;;8.80;4.88;;;;;;;;;;5084357;28;20043;-86
2021/04/17 09:11:36;;;;;;;11.65;4.32;;;;;;;;;;5080482;28;20529;-86
2021/04/17 09:14:01;;;;;;;9.85;4.95;;;;;;;;;;5073771;28;20020;-87
2021/04/17 09:16:36;;;;;;;8.27;4.22;;;;;;;;;;5082149;28;20028;-86
2021/04/17 09:19:02;;;;;;;15.20;4.47;;;;;;;;;;5081726;28;20441;-87
2021/04/17 09:21:27;;;;;;;20.70;6.05;;;;;;;;;;5079634;28;20073;-87
2021/04/17 09:23:55;;;;;;;11.37;4.27;;;;;;;;;;5095454;28;20012;-87
2021/04/17 09:26:29;;;;;;;8.43;4.38;;;;;;;;;;5095105;28;20639;-86
2021/04/17 09:28:55;;;;;;;8.90;4.20;;;;;;;;;;5082923;28;20027;-85
2021/04/17 09:31:21;;;;;;;8.07;3.72;;;;;;;;;;5093056;28;20020;-86
2021/04/17 09:33:46;;;;;;;7.50;4.45;;;;;;;;;;5095955;28;20165;-85
2021/04/17 09:36:21;;;;;;;11.63;4.07;;;;;;;;;;5093863;28;20536;-86
2021/04/17 09:38:46;;;;;;;7.65;3.42;;;;;;;;;;5091580;28;20451;-86
2021/04/17 09:41:11;;;;;;;9.73;3.22;;;;;;;;;;5088331;28;20024;-86
2021/04/17 09:43:37;;;;;;;14.73;3.33;;;;;;;;;;5079085;28;20087;-84
2021/04/17 09:46:05;;;;;;;9.38;3.30;;;;;;;;;;5077253;28;20012;-84
2021/04/17 09:48:37;;;;;;;8.70;4.20;;;;;;;;;;5081216;28;20398;-84
2021/04/17 09:51:03;;;;;;;9.88;3.60;;;;;;;;;;5089294;28;20073;-85
2021/04/17 09:53:29;;;;;;;8.82;3.63;;;;;;;;;;5093404;28;20024;-86
2021/04/17 09:55:56;;;;;;;10.38;3.50;;;;;;;;;;5087585;28;20140;-89
2021/04/17 09:58:26;;;;;;;5.63;2.67;;;;;;;;;;5082252;28;20043;-86
2021/04/17 10:00:57;;;;;;;11.57;3.83;;;;;;;;;;5078199;28;20004;-84
2021/04/17 10:03:29;;;;;;;7.80;3.45;;;;;;;;;;5076569;28;20031;-85
2021/04/17 10:05:55;;;;;;;7.65;2.67;;;;;;;;;;5075919;28;20042;-85
2021/04/17 10:08:26;;;;;;;9.88;3.45;;;;;;;;;;5081754;28;20107;-90
2021/04/17 10:10:52;;;;;;;12.68;3.75;;;;;;;;;;5075289;28;20021;-87
2021/04/17 10:13:34;;;;;;;9.98;3.78;;;;;;;;;;5084648;28;20498;-87
2021/04/17 10:16:00;;;;;;;8.52;3.35;;;;;;;;;;5077220;28;20439;-87
2021/04/17 10:18:25;;;;;;;9.10;3.78;;;;;;;;;;5086435;28;20030;-87
2021/04/17 10:20:51;;;;;;;9.75;3.30;;;;;;;;;;5088500;28;20108;-85
2021/04/17 10:23:19;;;;;;;6.95;3.47;;;;;;;;;;5084843;28;20021;-89
2021/04/17 10:25:53;;;;;;;6.63;3.78;;;;;;;;;;5073150;28;20008;-90
2021/04/17 10:28:24;;;;;;;10.25;3.58;;;;;;;;;;5084582;28;20044;-87
2021/04/17 10:30:51;;;;;;;10.00;4.00;;;;;;;;;;5081400;28;20027;-87
2021/04/17 10:33:20;;;;;;;6.72;3.50;;;;;;;;;;5087691;28;20051;-88
2021/04/17 10:35:49;;;;;;;8.55;3.60;;;;;;;;;;5083714;28;20048;-85
2021/04/17 10:38:24;;;;;;;9.13;3.25;;;;;;;;;;5085198;28;20086;-86
2021/04/17 10:40:49;;;;;;;12.70;3.70;;;;;;;;;;5088138;28;20043;-84
2021/04/17 10:43:15;;;;;;;10.15;3.35;;;;;;;;;;5085869;28;20038;-84
2021/04/17 10:45:42;;;;;;;12.85;3.70;;;;;;;;;;5080155;28;20024;-86
2021/04/17 10:48:09;;;;;;;7.32;3.60;;;;;;;;;;5074286;28;20479;-85
2021/04/17 10:50:55;;;;;;;7.60;3.60;;;;;;;;;;5088356;28;20388;-87
2021/04/17 10:53:24;;;;;;;11.05;3.53;;;;;;;;;;5088849;28;20043;-87
2021/04/17 10:55:51;;;;;;;11.50;3.55;;;;;;;;;;5083392;28;20043;-86
2021/04/17 10:58:27;;;;;;;6.63;3.80;;;;;;;;;;5081801;28;20100;-87
2021/04/17 11:00:55;;;;;;;11.20;3.78;;;;;;;;;;5086396;28;20016;-87
2021/04/17 11:03:20;;;;;;;6.85;3.22;;;;;;;;;;5085381;28;20020;-86
2021/04/17 11:05:45;;;;;;;8.98;3.25;;;;;;;;;;5086836;28;20031;-86
2021/04/17 11:08:12;;;;;;;9.82;3.63;;;;;;;;;;5083951;28;20055;-87
2021/04/17 11:10:38;;;;;;;10.50;3.92;;;;;;;;;;5073002;28;20059;-86
2021/04/17 11:13:04;;;;;;;6.45;3.20;;;;;;;;;;5086730;28;20496;-86
2021/04/17 11:15:30;;;;;;;16.75;3.90;;;;;;;;;;5089933;28;20051;-86
2021/04/17 11:18:12;;;;;;;8.80;3.83;;;;;;;;;;5078178;28;20395;-86
2021/04/17 11:20:43;;;;;;;9.07;3.55;;;;;;;;;;5081316;28;20016;-89
2021/04/17 11:23:27;;;;;;;11.50;4.22;;;;;;;;;;5085842;28;20124;-89
2021/04/17 11:25:56;;;;;;;9.65;3.47;;;;;;;;;;5089169;28;20375;-88
2021/04/17 11:28:24;;;;;;;10.90;3.35;;;;;;;;;;5083843;28;20059;-90
2021/04/17 11:30:50;;;;;;;11.45;3.13;;;;;;;;;;5079304;28;20094;-89
2021/04/17 11:33:15;;;;;;;5.03;2.63;;;;;;;;;;5077261;28;20020;-89
2021/04/17 11:35:41;;;;;;;7.32;3.17;;;;;;;;;;5078496;28;20130;-89
2021/04/17 11:38:07;;;;;;;14.50;3.38;;;;;;;;;;5075707;28;20024;-89
2021/04/17 11:40:37;;;;;;;9.57;3.47;;;;;;;;;;5082002;28;20020;-89
2021/04/17 11:43:03;;;;;;;13.35;3.30;;;;;;;;;;5073289;28;20069;-88
2021/04/17 11:45:28;;;;;;;10.63;3.53;;;;;;;;;;5083786;28;20113;-90
2021/04/17 11:47:54;;;;;;;14.48;3.55;;;;;;;;;;5084440;28;20016;-88
2021/04/17 11:50:19;;;;;;;11.32;3.85;;;;;;;;;;5085043;28;20032;-90
2021/04/17 11:52:44;;;;;;;9.32;3.55;;;;;;;;;;5083435;28;20016;-89
2021/04/17 11:55:10;;;;;;;10.05;3.65;;;;;;;;;;5090874;28;20024;-89
2021/04/17 11:57:36;;;;;;;17.83;4.43;;;;;;;;;;5084652;28;20021;-88
2021/04/17 12:00:02;;;;;;;9.25;3.30;;;;;;;;;;5081570;28;20077;-89
2021/04/17 12:02:28;;;;;;;6.20;2.90;;;;;;;;;;5086571;28;20081;-90
2021/04/17 12:04:53;;;;;;;8.15;3.10;;;;;;;;;;5087673;28;20382;-89
2021/04/17 12:07:27;;;;;;;11.10;3.03;;;;;;;;;;5090168;28;20020;-90
2021/04/17 12:09:55;;;;;;;8.25;4.45;;;;;;;;;;5072429;28;20039;-89
2021/04/17 12:12:24;;;;;;;8.27;3.33;;;;;;;;;;5088887;28;20023;-89
2021/04/17 12:14:49;;;;;;;11.73;4.45;;;;;;;;;;5088241;28;20026;-89
2021/04/17 12:17:14;;;;;;;9.60;3.35;;;;;;;;;;5085900;28;20111;-89
2021/04/17 12:19:40;;;;;;;10.85;3.70;;;;;;;;;;5088815;28;20031;-88
2021/04/17 12:22:05;;;;;;;10.77;3.30;;;;;;;;;;5087259;28;20016;-88
2021/04/17 12:24:30;;;;;;;10.63;3.63;;;;;;;;;;5084979;28;20017;-90
2021/04/17 12:26:56;;;;;;;10.48;3.63;;;;;;;;;;5102008;22;20733;-66
2021/04/17 12:29:21;;;;;;;9.85;3.78;;;;;;;;;;5055090;28;20020;-66
2021/04/17 12:31:46;;;;;;;10.73;4.00;;;;;;;;;;5061755;28;20369;-66
2021/04/17 12:34:11;;;;;;;9.45;3.67;;;;;;;;;;5063940;28;20278;-65
2021/04/17 12:36:37;;;;;;;12.77;3.90;;;;;;;;;;5061251;28;20028;-66
2021/04/17 12:39:02;;;;;;;12.13;4.18;;;;;;;;;;5062043;28;20020;-67
2021/04/17 12:41:28;;;;;;;7.22;3.10;;;;;;;;;;5067390;28;20440;-66
2021/04/17 12:43:53;;;;;;;10.33;4.40;;;;;;;;;;5066902;28;20020;-67
2021/04/17 12:46:18;;;;;;;19.90;4.43;;;;;;;;;;5067381;28;20270;-66
2021/04/17 12:48:43;;;;;;;12.85;4.20;;;;;;;;;;5064065;28;20294;-67
2021/04/17 12:51:08;;;;;;;8.38;3.80;;;;;;;;;;5063531;28;20063;-66
2021/04/17 12:53:34;;;;;;;16.70;4.07;;;;;;;;;;5062465;28;20105;-66
2021/04/17 12:55:59;;;;;;;10.57;3.73;;;;;;;;;;5063243;28;20031;-66
2021/04/17 12:58:24;;;;;;;8.93;3.38;;;;;;;;;;5061995;28;20628;-66
2021/04/17 13:00:50;;;;;;;11.10;3.27;;;;;;;;;;5061790;28;20055;-67
2021/04/17 13:03:15;;;;;;;15.88;4.05;;;;;;;;;;5065723;28;20366;-67
2021/04/17 13:05:40;;;;;;;10.52;3.25;;;;;;;;;;5058518;28;20036;-67
2021/04/17 13:08:06;;;;;;;17.45;3.80;;;;;;;;;;5068328;28;20514;-67
2021/04/17 13:10:31;;;;;;;8.93;4.05;;;;;;;;;;5067449;28;20031;-67
2021/04/17 13:12:57;;;;;;;12.35;4.22;;;;;;;;;;5065564;28;20023;-67
2021/04/17 13:15:22;;;;;;;11.90;3.72;;;;;;;;;;5062616;28;20020;-67
2021/04/17 13:17:47;;;;;;;10.88;3.65;;;;;;;;;;5058756;28;20486;-67
2021/04/17 13:20:13;;;;;;;16.20;3.77;;;;;;;;;;5061561;28;20048;-67
2021/04/17 13:22:38;;;;;;;23.35;4.95;;;;;;;;;;5069344;28;21000;-67
2021/04/17 13:25:03;;;;;;;15.53;4.70;;;;;;;;;;5063839;28;20036;-67
2021/04/17 13:27:29;;;;;;;9.90;3.75;;;;;;;;;;5066736;28;20334;-67
2021/04/17 13:29:54;;;;;;;8.82;3.58;;;;;;;;;;5054409;28;20518;-67
2021/04/17 13:32:19;;;;;;;19.63;4.07;;;;;;;;;;5059756;28;20021;-68
2021/04/17 13:34:44;;;;;;;11.48;3.92;;;;;;;;;;5055069;28;20124;-67
2021/04/17 13:37:10;;;;;;;11.05;3.28;;;;;;;;;;5061100;28;20100;-67
2021/04/17 13:39:35;;;;;;;11.73;3.20;;;;;;;;;;5059536;28;20024;-67
2021/04/17 13:42:00;;;;;;;6.18;2.15;;;;;;;;;;5058554;28;20021;-67
2021/04/17 13:44:26;;;;;;;6.93;2.70;;;;;;;;;;5064581;28;20020;-67
2021/04/17 13:46:51;;;;;;;8.63;2.45;;;;;;;;;;5060699;28;20541;-67
2021/04/17 13:49:16;;;;;;;6.75;2.17;;;;;;;;;;5057826;28;20028;-67
2021/04/17 13:51:41;;;;;;;5.60;2.45;;;;;;;;;;5058028;28;20029;-67
2021/04/17 13:54:06;;;;;;;9.83;2.70;;;;;;;;;;5063629;28;20021;-67
2021/04/17 13:56:32;;;;;;;8.10;2.10;;;;;;;;;;5059999;28;20378;-67
2021/04/17 13:58:57;;;;;;;6.13;2.40;;;;;;;;;;5060178;28;20028;-67
2021/04/17 14:01:23;;;;;;;5.50;2.45;;;;;;;;;;5060413;28;20020;-67
2021/04/17 14:03:48;;;;;;;6.13;2.33;;;;;;;;;;5061331;28;20036;-67
2021/04/17 14:06:13;;;;;;;8.73;2.13;;;;;;;;;;5056979;28;20032;-67
2021/04/17 14:08:38;;;;;;;8.40;2.57;;;;;;;;;;5060780;28;20304;-66
2021/04/17 14:11:04;;;;;;;7.47;2.17;;;;;;;;;;5065355;28;20278;-67
2021/04/17 14:13:30;;;;;;;16.65;3.50;;;;;;;;;;5058049;28;20543;-67
2021/04/17 14:15:56;;;;;;;11.38;3.22;;;;;;;;;;5062692;28;20032;-68
2021/04/17 14:18:21;;;;;;;8.95;2.92;;;;;;;;;;5040613;28;20090;-68
2021/04/17 14:20:46;;;;;;;9.30;3.38;;;;;;;;;;5064556;28;20082;-67
2021/04/17 14:23:13;;;;;;;7.03;2.83;;;;;;;;;;5060035;28;20025;-67
2021/04/17 14:25:38;;;;;;;70.53;33.40;;;;;;;;;;5060627;28;20074;-67
2021/04/17 14:28:03;;;;;;;7.13;3.13;;;;;;;;;;5066000;28;20431;-67
2021/04/17 14:30:28;;;;;;;7.05;2.55;;;;;;;;;;5044599;28;20044;-67
2021/04/17 14:32:54;;;;;;;9.10;2.70;;;;;;;;;;5059466;28;20456;-67